createdAt,value
2019-01-26T00:00:00.461Z,52.67
2019-01-26T00:02:30.745Z,52.92
2019-01-26T00:05:00.996Z,53.27
2019-01-26T00:07:31.325Z,53.39
2019-01-26T00:10:01.662Z,53.23
2019-01-26T00:12:31.997Z,52.79
2019-01-26T00:15:02.304Z,52.94
2019-01-26T00:17:32.566Z,52.11
2019-01-26T00:20:02.823Z,52.59
2019-01-26T00:22:33.195Z,51.69
2019-01-26T00:25:03.574Z,51.69
2019-01-26T00:27:33.856Z,52.04
2019-01-26T00:30:05.364Z,51.97
2019-01-26T00:32:37.144Z,51.26
2019-01-26T00:35:07.555Z,51.31
2019-01-26T00:37:37.857Z,50.92
2019-01-26T00:40:08.613Z,51.32
2019-01-26T00:42:38.951Z,50.54
2019-01-26T00:45:09.687Z,51.14
2019-01-26T00:47:40.141Z,50.79
2019-01-26T00:50:10.504Z,50.40
2019-01-26T00:52:40.765Z,50.52
2019-01-26T00:55:11.275Z,50.71
2019-01-26T00:57:41.585Z,50.02
2019-01-26T01:00:14.145Z,49.98
2019-01-26T01:02:44.439Z,49.62
2019-01-26T01:05:15.234Z,49.27
2019-01-26T01:07:45.657Z,49.04
2019-01-26T01:10:16.412Z,49.16
2019-01-26T01:12:46.742Z,48.71
2019-01-26T01:15:17.146Z,49.30
2019-01-26T01:17:47.452Z,48.90
2019-01-26T01:20:18.023Z,49.07
2019-01-26T01:22:48.489Z,48.70
2019-01-26T01:25:18.787Z,48.70
2019-01-26T01:27:49.043Z,49.01
2019-01-26T01:30:20.660Z,48.90
2019-01-26T01:32:51.049Z,48.79
2019-01-26T01:35:21.342Z,48.54
2019-01-26T01:37:51.606Z,49.00
2019-01-26T01:40:22.059Z,49.03
2019-01-26T01:42:54.642Z,49.13
2019-01-26T01:45:25.351Z,49.27
2019-01-26T01:47:55.703Z,48.90
2019-01-26T01:50:27.077Z,49.59
2019-01-26T01:52:57.352Z,49.62
2019-01-26T01:55:27.598Z,49.67
2019-01-26T01:57:57.913Z,49.41
2019-01-26T02:00:28.550Z,49.25
2019-01-26T02:02:58.829Z,49.60
2019-01-26T02:05:29.159Z,49.33
2019-01-26T02:07:59.436Z,49.25
2019-01-26T02:10:29.810Z,49.26
2019-01-26T02:13:00.125Z,49.44
2019-01-26T02:15:30.363Z,49.80
2019-01-26T02:18:00.631Z,49.27
2019-01-26T02:20:30.909Z,49.32
2019-01-26T02:23:01.223Z,49.92
2019-01-26T02:25:31.463Z,49.60
2019-01-26T02:28:01.751Z,49.82
2019-01-26T02:30:33.126Z,49.16
2019-01-26T02:33:03.391Z,49.81
2019-01-26T02:35:33.646Z,49.59
2019-01-26T02:38:03.935Z,48.88
2019-01-26T02:40:35.914Z,48.97
2019-01-26T02:43:06.141Z,49.64
2019-01-26T02:45:36.413Z,49.39
2019-01-26T02:48:06.866Z,49.46
2019-01-26T02:50:37.255Z,49.24
2019-01-26T02:53:07.575Z,49.36
2019-01-26T02:55:37.911Z,49.11
2019-01-26T02:58:08.185Z,48.89
2019-01-26T03:00:38.481Z,49.16
2019-01-26T03:03:08.728Z,48.53
2019-01-26T03:05:39.005Z,48.85
2019-01-26T03:08:09.378Z,48.46
2019-01-26T03:10:39.686Z,48.60
2019-01-26T03:13:09.925Z,48.44
2019-01-26T03:15:41.574Z,48.38
2019-01-26T03:18:12.067Z,48.16
2019-01-26T03:20:42.319Z,47.76
2019-01-26T03:23:12.542Z,47.71
2019-01-26T03:25:42.836Z,47.84
2019-01-26T03:28:13.059Z,47.22
2019-01-26T03:30:43.371Z,47.69
2019-01-26T03:33:13.621Z,48.21
2019-01-26T03:35:43.889Z,48.66
2019-01-26T03:38:14.135Z,49.30
2019-01-26T03:40:44.396Z,49.67
2019-01-26T03:43:14.621Z,49.99
2019-01-26T03:45:44.879Z,50.59
2019-01-26T03:48:15.107Z,51.38
2019-01-26T03:50:45.351Z,52.44
2019-01-26T03:53:15.598Z,52.98
2019-01-26T03:55:45.858Z,54.58
2019-01-26T03:58:16.112Z,56.06
2019-01-26T04:00:46.442Z,57.28
2019-01-26T04:03:16.786Z,57.85
2019-01-26T04:05:47.018Z,58.07
2019-01-26T04:08:17.292Z,58.73
2019-01-26T04:10:47.543Z,59.19
2019-01-26T04:13:17.815Z,59.23
2019-01-26T04:15:48.062Z,59.70
2019-01-26T04:18:18.327Z,59.47
2019-01-26T04:20:48.691Z,59.53
2019-01-26T04:23:18.948Z,59.22
2019-01-26T04:25:49.191Z,58.95
2019-01-26T04:28:19.462Z,58.97
2019-01-26T04:30:49.717Z,59.40
2019-01-26T04:33:20.033Z,59.99
2019-01-26T04:35:50.324Z,61.42
2019-01-26T04:38:20.597Z,62.81
2019-01-26T04:40:50.843Z,63.06
2019-01-26T04:43:21.152Z,63.29
2019-01-26T04:45:51.385Z,63.17
2019-01-26T04:48:21.746Z,63.38
2019-01-26T04:50:52.069Z,63.89
2019-01-26T04:53:22.350Z,64.94
2019-01-26T04:55:52.592Z,65.93
2019-01-26T04:58:22.823Z,66.89
2019-01-26T05:00:53.101Z,68.13
2019-01-26T05:03:23.420Z,68.96
2019-01-26T05:05:53.702Z,69.40
2019-01-26T05:08:23.944Z,70.15
2019-01-26T05:10:54.226Z,70.61
2019-01-26T05:13:24.507Z,70.94
2019-01-26T05:15:54.908Z,71.69
2019-01-26T05:18:25.160Z,72.04
2019-01-26T05:20:55.463Z,72.52
2019-01-26T05:23:25.816Z,72.98
2019-01-26T05:25:56.093Z,73.26
2019-01-26T05:28:26.373Z,73.44
2019-01-26T05:30:56.677Z,74.05
2019-01-26T05:33:26.950Z,74.05
2019-01-26T05:35:57.284Z,74.17
2019-01-26T05:38:27.516Z,74.99
2019-01-26T05:40:57.819Z,74.90
2019-01-26T05:43:28.059Z,74.99
2019-01-26T05:45:58.320Z,74.97
2019-01-26T05:48:28.665Z,75.04
2019-01-26T05:51:00.359Z,75.04
2019-01-26T05:53:30.635Z,75.21
2019-01-26T05:56:00.914Z,75.21
2019-01-26T05:58:31.191Z,75.05
2019-01-26T06:01:01.680Z,74.91
2019-01-26T06:03:31.956Z,74.68
2019-01-26T06:06:02.202Z,74.45
2019-01-26T06:08:32.482Z,74.54
2019-01-26T06:11:04.209Z,74.52
2019-01-26T06:13:34.548Z,74.38
2019-01-26T06:16:05.011Z,74.51
2019-01-26T06:18:35.382Z,74.60
2019-01-26T06:21:05.693Z,74.45
2019-01-26T06:23:35.977Z,74.53
2019-01-26T06:26:06.335Z,74.58
2019-01-26T06:28:36.625Z,74.53
2019-01-26T06:31:06.901Z,74.58
2019-01-26T06:33:37.232Z,74.74
2019-01-26T06:36:07.743Z,74.96
2019-01-26T06:38:38.021Z,74.97
2019-01-26T06:41:08.339Z,74.74
2019-01-26T06:43:38.583Z,74.66
2019-01-26T06:46:08.867Z,74.44
2019-01-26T06:48:39.127Z,74.44
2019-01-26T06:51:09.434Z,74.28
2019-01-26T06:53:39.756Z,74.41
2019-01-26T06:56:09.988Z,74.04
2019-01-26T06:58:40.347Z,73.89
2019-01-26T07:01:10.575Z,73.34
2019-01-26T07:03:40.849Z,73.34
2019-01-26T07:06:28.521Z,73.34
2019-01-26T07:08:58.833Z,73.47
2019-01-26T07:11:29.358Z,73.24
2019-01-26T07:13:59.643Z,72.84
2019-01-26T07:16:29.906Z,72.93
2019-01-26T07:19:00.194Z,72.98
2019-01-26T07:21:30.507Z,72.82
2019-01-26T07:24:00.766Z,72.93
2019-01-26T07:26:31.022Z,72.80
2019-01-26T07:29:01.303Z,72.95
2019-01-26T07:31:31.521Z,72.86
2019-01-26T07:34:01.800Z,72.89
2019-01-26T07:36:32.045Z,73.04
2019-01-26T07:39:02.296Z,72.99
2019-01-26T07:41:32.603Z,73.07
2019-01-26T07:44:02.879Z,72.84
2019-01-26T07:46:33.137Z,72.85
2019-01-26T07:49:03.402Z,72.90
2019-01-26T07:51:33.663Z,73.00
2019-01-26T07:54:03.947Z,73.05
2019-01-26T07:56:34.382Z,73.32
2019-01-26T07:59:04.950Z,73.39
2019-01-26T08:01:35.270Z,73.60
2019-01-26T08:04:05.979Z,73.82
2019-01-26T08:06:37.746Z,73.81
2019-01-26T08:09:10.419Z,74.00
2019-01-26T08:11:40.697Z,74.02
2019-01-26T08:14:11.377Z,73.88
2019-01-26T08:16:41.640Z,73.89
2019-01-26T08:19:11.901Z,73.70
2019-01-26T08:21:42.297Z,73.72
2019-01-26T08:24:12.586Z,73.71
2019-01-26T08:26:42.835Z,73.54
2019-01-26T08:29:13.121Z,73.43
2019-01-26T08:31:43.447Z,73.33
2019-01-26T08:34:13.727Z,73.31
2019-01-26T08:36:44.072Z,73.36
2019-01-26T08:39:14.445Z,73.58
2019-01-26T08:41:44.658Z,73.59
2019-01-26T08:44:14.925Z,73.71
2019-01-26T08:46:45.203Z,73.79
2019-01-26T08:49:15.506Z,73.79
2019-01-26T08:51:45.833Z,73.85
2019-01-26T08:54:16.113Z,73.75
2019-01-26T08:56:46.378Z,73.80
2019-01-26T08:59:16.635Z,73.78
2019-01-26T09:01:48.552Z,73.76
2019-01-26T09:04:22.979Z,73.89
2019-01-26T09:06:56.638Z,73.97
2019-01-26T09:09:26.954Z,73.93
2019-01-26T09:11:57.364Z,73.97
2019-01-26T09:14:27.750Z,73.98
2019-01-26T09:16:58.113Z,74.00
2019-01-26T09:19:28.378Z,73.99
2019-01-26T09:21:58.862Z,73.98
2019-01-26T09:24:30.586Z,73.94
2019-01-26T09:27:00.962Z,74.03
2019-01-26T09:29:31.262Z,74.00
2019-01-26T09:32:01.515Z,73.99
2019-01-26T09:34:31.795Z,74.00
2019-01-26T09:37:02.225Z,74.10
2019-01-26T09:39:32.522Z,74.21
2019-01-26T09:42:02.816Z,74.12
2019-01-26T09:44:33.133Z,74.13
2019-01-26T09:47:03.520Z,74.16
2019-01-26T09:49:33.836Z,74.25
2019-01-26T09:52:04.103Z,74.23
2019-01-26T09:54:35.698Z,74.33
2019-01-26T09:57:06.436Z,74.44
2019-01-26T09:59:36.711Z,74.51
2019-01-26T10:02:07.120Z,74.52
2019-01-26T10:04:37.410Z,74.52
2019-01-26T10:07:07.807Z,74.73
2019-01-26T10:09:38.092Z,74.86
2019-01-26T10:12:08.472Z,74.86
2019-01-26T10:14:38.732Z,74.86
2019-01-26T10:17:09.074Z,74.91
2019-01-26T10:19:39.384Z,74.84
2019-01-26T10:22:09.666Z,74.80
2019-01-26T10:24:40.125Z,74.67
2019-01-26T10:27:10.627Z,74.76
2019-01-26T10:29:41.106Z,74.82
2019-01-26T10:32:11.426Z,74.67
2019-01-26T10:34:41.723Z,74.67
2019-01-26T10:37:18.885Z,74.81
2019-01-26T10:39:49.290Z,74.82
2019-01-26T10:42:27.249Z,74.94
2019-01-26T10:44:57.544Z,74.77
2019-01-26T10:47:28.060Z,74.87
2019-01-26T10:49:58.373Z,74.83
2019-01-26T10:52:28.638Z,74.77
2019-01-26T10:54:58.906Z,74.67
2019-01-26T10:57:29.434Z,74.68
2019-01-26T10:59:59.834Z,74.64
2019-01-26T11:02:30.226Z,74.63
2019-01-26T11:05:00.518Z,74.56
2019-01-26T11:07:30.851Z,74.58
2019-01-26T11:10:01.459Z,74.69
2019-01-26T11:12:31.975Z,74.65
2019-01-26T11:15:02.361Z,74.73
2019-01-26T11:17:32.668Z,74.62
2019-01-26T11:20:05.837Z,74.48
2019-01-26T11:22:36.142Z,74.52
2019-01-26T11:25:08.528Z,73.80
2019-01-26T11:27:38.895Z,73.47
2019-01-26T11:30:11.159Z,73.47
2019-01-26T11:32:41.575Z,73.60
2019-01-26T11:35:12.651Z,73.23
2019-01-26T11:37:42.976Z,72.85
2019-01-26T11:40:18.674Z,73.02
2019-01-26T11:42:48.991Z,72.91
2019-01-26T11:45:41.142Z,72.71
2019-01-26T11:48:18.157Z,72.50
2019-01-26T11:50:52.103Z,72.12
2019-01-26T11:53:22.435Z,71.96
2019-01-26T11:56:06.946Z,71.85
2019-01-26T11:58:37.307Z,71.71
2019-01-26T12:01:29.400Z,71.91
2019-01-26T12:04:05.693Z,71.91
2019-01-26T12:06:50.361Z,72.03
2019-01-26T12:09:20.959Z,71.83
2019-01-26T12:11:51.240Z,71.81
2019-01-26T12:14:21.525Z,71.85
2019-01-26T12:16:51.786Z,71.70
2019-01-26T12:19:22.473Z,71.71
2019-01-26T12:21:52.900Z,71.29
2019-01-26T12:24:23.505Z,71.38
2019-01-26T12:26:53.967Z,70.91
2019-01-26T12:29:24.271Z,70.83
2019-01-26T12:31:54.607Z,70.41
2019-01-26T12:34:24.935Z,69.98
2019-01-26T12:36:55.214Z,69.93
2019-01-26T12:39:25.585Z,69.81
2019-01-26T12:41:55.969Z,69.91
2019-01-26T12:44:26.216Z,69.31
2019-01-26T12:46:56.599Z,69.27
2019-01-26T12:49:29.623Z,69.35
2019-01-26T12:51:58.946Z,69.10
2019-01-26T12:54:29.315Z,69.00
2019-01-26T12:57:00.394Z,69.07
2019-01-26T12:59:30.748Z,68.67
2019-01-26T13:02:01.034Z,68.90
2019-01-26T13:04:31.329Z,68.86
2019-01-26T13:07:02.178Z,68.79
2019-01-26T13:09:32.561Z,68.82
2019-01-26T13:12:02.986Z,68.70
2019-01-26T13:14:33.368Z,68.67
2019-01-26T13:17:03.772Z,68.73
2019-01-26T13:19:36.949Z,68.81
2019-01-26T13:22:06.450Z,68.68
2019-01-26T13:24:36.791Z,68.75
2019-01-26T13:27:07.051Z,68.82
2019-01-26T13:29:37.382Z,68.83
2019-01-26T13:32:07.687Z,68.59
2019-01-26T13:34:37.991Z,68.66
2019-01-26T13:37:08.264Z,68.55
2019-01-26T13:39:38.520Z,68.47
2019-01-26T13:42:08.772Z,68.45
2019-01-26T13:44:39.084Z,68.40
2019-01-26T13:47:09.356Z,67.96
2019-01-26T13:49:44.015Z,67.67
2019-01-26T13:52:11.604Z,67.67
2019-01-26T13:54:41.906Z,67.69
2019-01-26T13:57:12.233Z,67.49
2019-01-26T13:59:42.572Z,67.70
2019-01-26T14:02:12.839Z,67.51
2019-01-26T14:04:43.183Z,67.57
2019-01-26T14:07:13.490Z,67.47
2019-01-26T14:09:43.821Z,67.55
2019-01-26T14:12:14.248Z,67.69
2019-01-26T14:14:44.543Z,67.47
2019-01-26T14:17:14.762Z,67.66
2019-01-26T14:19:51.221Z,67.58
2019-01-26T14:22:17.118Z,67.48
2019-01-26T14:24:48.511Z,67.24
2019-01-26T14:27:18.886Z,67.13
2019-01-26T14:29:49.195Z,67.16
2019-01-26T14:32:19.509Z,67.09
2019-01-26T14:34:49.806Z,67.15
2019-01-26T14:37:20.153Z,67.27
2019-01-26T14:39:50.555Z,67.11
2019-01-26T14:42:20.840Z,67.16
2019-01-26T14:44:51.311Z,67.20
2019-01-26T14:47:21.666Z,67.13
2019-01-26T14:49:58.287Z,67.33
2019-01-26T14:52:23.962Z,67.12
2019-01-26T14:54:54.362Z,67.39
2019-01-26T14:57:24.682Z,67.32
2019-01-26T14:59:54.989Z,67.36
2019-01-26T15:02:25.354Z,67.45
2019-01-26T15:04:55.609Z,67.57
2019-01-26T15:07:25.969Z,67.63
2019-01-26T15:09:56.784Z,67.50
2019-01-26T15:12:27.162Z,67.54
2019-01-26T15:14:57.444Z,67.62
2019-01-26T15:17:27.791Z,67.56
2019-01-26T15:19:58.170Z,67.69
2019-01-26T15:22:28.550Z,67.67
2019-01-26T15:24:58.973Z,67.87
2019-01-26T15:27:29.344Z,67.85
2019-01-26T15:29:59.629Z,67.90
2019-01-26T15:32:29.898Z,68.11
2019-01-26T15:35:00.224Z,67.97
2019-01-26T15:37:30.494Z,67.89
2019-01-26T15:40:00.812Z,68.05
2019-01-26T15:42:31.140Z,68.21
2019-01-26T15:45:01.463Z,68.21
2019-01-26T15:47:31.746Z,68.07
2019-01-26T15:50:02.079Z,68.18
2019-01-26T15:52:32.379Z,68.23
2019-01-26T15:55:02.700Z,68.20
2019-01-26T15:57:33.142Z,68.32
2019-01-26T16:00:03.969Z,68.38
2019-01-26T16:02:34.271Z,68.51
2019-01-26T16:05:05.440Z,68.55
2019-01-26T16:07:35.714Z,68.69
2019-01-26T16:10:10.033Z,68.74
2019-01-26T16:12:40.369Z,68.74
2019-01-26T16:15:12.934Z,68.92
2019-01-26T16:17:43.255Z,68.92
2019-01-26T16:20:20.074Z,69.01
2019-01-26T16:22:46.382Z,69.23
2019-01-26T16:25:18.799Z,69.16
2019-01-26T16:27:49.091Z,69.21
2019-01-26T16:30:24.753Z,69.27
2019-01-26T16:32:55.087Z,69.32
2019-01-26T16:35:25.340Z,69.27
2019-01-26T16:37:55.652Z,69.46
2019-01-26T16:40:28.275Z,69.55
2019-01-26T16:42:59.768Z,69.62
2019-01-26T16:45:32.425Z,69.71
2019-01-26T16:48:02.842Z,69.56
2019-01-26T16:50:33.153Z,69.62
2019-01-26T16:53:03.470Z,69.44
2019-01-26T16:55:33.767Z,69.40
2019-01-26T16:58:04.293Z,69.46
2019-01-26T17:00:38.028Z,69.49
2019-01-26T17:03:08.319Z,69.47
2019-01-26T17:05:38.655Z,69.41
2019-01-26T17:08:09.974Z,69.32
2019-01-26T17:10:40.418Z,69.21
2019-01-26T17:13:10.810Z,69.25
2019-01-26T17:15:41.079Z,69.17
2019-01-26T17:18:13.795Z,69.06
2019-01-26T17:20:44.619Z,69.02
2019-01-26T17:23:14.934Z,68.97
2019-01-26T17:25:45.263Z,68.76
2019-01-26T17:28:15.620Z,68.74
2019-01-26T17:30:45.880Z,68.64
2019-01-26T17:33:16.369Z,68.53
2019-01-26T17:35:46.791Z,68.61
2019-01-26T17:38:17.082Z,68.31
2019-01-26T17:40:54.044Z,68.32
2019-01-26T17:43:19.486Z,68.20
2019-01-26T17:45:49.797Z,68.07
2019-01-26T17:48:20.184Z,68.25
2019-01-26T17:50:50.446Z,68.22
2019-01-26T17:53:20.773Z,68.15
2019-01-26T17:55:51.257Z,68.18
2019-01-26T17:58:21.540Z,68.18
2019-01-26T18:01:12.444Z,68.08
2019-01-26T18:03:42.781Z,68.14
2019-01-26T18:06:13.055Z,68.24
2019-01-26T18:08:43.487Z,68.34
2019-01-26T18:11:13.815Z,68.39
2019-01-26T18:13:44.154Z,68.39
2019-01-26T18:16:14.573Z,68.36
2019-01-26T18:18:45.120Z,68.36
2019-01-26T18:21:15.493Z,68.40
2019-01-26T18:23:45.853Z,68.37
2019-01-26T18:26:16.096Z,68.54
2019-01-26T18:28:46.425Z,68.66
2019-01-26T18:31:16.811Z,68.61
2019-01-26T18:33:47.189Z,68.68
2019-01-26T18:36:17.459Z,68.60
2019-01-26T18:38:47.795Z,68.61
2019-01-26T18:41:18.128Z,68.76
2019-01-26T18:43:48.485Z,68.72
2019-01-26T18:46:19.094Z,68.67
2019-01-26T18:48:49.455Z,68.66
2019-01-26T18:51:19.778Z,68.67
2019-01-26T18:53:50.113Z,68.69
2019-01-26T18:56:20.492Z,68.65
2019-01-26T18:58:52.214Z,68.63
2019-01-26T19:01:22.681Z,68.66
2019-01-26T19:04:22.692Z,68.82
2019-01-26T19:06:53.205Z,68.41
2019-01-26T19:09:23.508Z,68.48
2019-01-26T19:11:53.877Z,68.41
2019-01-26T19:14:24.294Z,68.62
2019-01-26T19:16:54.600Z,68.47
2019-01-26T19:19:24.918Z,68.28
2019-01-26T19:21:55.280Z,68.35
2019-01-26T19:24:25.649Z,68.21
2019-01-26T19:26:56.050Z,68.14
2019-01-26T19:29:26.562Z,68.18
2019-01-26T19:31:57.093Z,68.07
2019-01-26T19:34:27.509Z,68.21
2019-01-26T19:36:57.994Z,68.18
2019-01-26T19:39:28.525Z,68.07
2019-01-26T19:41:59.225Z,68.03
2019-01-26T19:44:29.804Z,67.95
2019-01-26T19:47:00.194Z,67.76
2019-01-26T19:49:30.461Z,67.66
2019-01-26T19:52:00.875Z,67.46
2019-01-26T19:54:31.169Z,67.37
2019-01-26T19:57:01.564Z,67.55
2019-01-26T19:59:32.501Z,67.42
2019-01-26T20:02:02.837Z,67.52
2019-01-26T20:04:33.193Z,67.58
2019-01-26T20:07:03.658Z,67.17
2019-01-26T20:09:33.990Z,67.26
2019-01-26T20:12:05.610Z,67.13
2019-01-26T20:14:35.944Z,67.04
2019-01-26T20:17:06.335Z,66.76
2019-01-26T20:19:36.746Z,66.74
2019-01-26T20:22:07.169Z,66.46
2019-01-26T20:24:37.565Z,66.57
2019-01-26T20:27:08.026Z,66.59
2019-01-26T20:29:38.432Z,66.38
2019-01-26T20:32:08.778Z,66.44
2019-01-26T20:34:39.235Z,66.10
2019-01-26T20:37:09.755Z,66.28
2019-01-26T20:39:40.247Z,66.01
2019-01-26T20:42:10.579Z,66.03
2019-01-26T20:44:40.960Z,66.33
2019-01-26T20:47:11.273Z,66.14
2019-01-26T20:49:41.573Z,66.03
2019-01-26T20:52:11.872Z,65.90
2019-01-26T20:54:43.669Z,65.90
2019-01-26T20:57:14.051Z,65.94
2019-01-26T20:59:44.517Z,66.09
2019-01-26T21:02:15.360Z,66.19
2019-01-26T21:04:45.836Z,66.13
2019-01-26T21:07:20.164Z,66.09
2019-01-26T21:09:50.652Z,66.23
2019-01-26T21:12:20.906Z,66.47
2019-01-26T21:14:51.558Z,66.22
2019-01-26T21:17:21.971Z,66.35
2019-01-26T21:19:52.353Z,66.53
2019-01-26T21:22:22.844Z,66.48
2019-01-26T21:24:54.135Z,66.56
2019-01-26T21:27:24.840Z,66.69
2019-01-26T21:29:55.738Z,66.57
2019-01-26T21:32:26.066Z,66.72
2019-01-26T21:34:57.223Z,67.04
2019-01-26T21:37:27.536Z,66.90
2019-01-26T21:39:57.954Z,66.86
2019-01-26T21:42:28.620Z,67.05
2019-01-26T21:44:59.187Z,67.04
2019-01-26T21:47:30.798Z,67.19
2019-01-26T21:50:01.087Z,67.29
2019-01-26T21:52:31.385Z,67.22
2019-01-26T21:55:01.713Z,67.18
2019-01-26T21:57:32.072Z,67.27
2019-01-26T22:00:02.705Z,67.16
2019-01-26T22:02:32.982Z,67.58
2019-01-26T22:05:03.314Z,67.67
2019-01-26T22:07:33.813Z,67.44
2019-01-26T22:10:05.260Z,67.44
2019-01-26T22:12:35.586Z,67.31
2019-01-26T22:15:07.369Z,67.39
2019-01-26T22:17:37.615Z,67.50
2019-01-26T22:20:11.718Z,67.46
2019-01-26T22:22:42.017Z,67.77
2019-01-26T22:25:13.047Z,67.48
2019-01-26T22:27:43.408Z,67.64
2019-01-26T22:30:16.555Z,67.41
2019-01-26T22:32:46.868Z,67.71
2019-01-26T22:35:18.327Z,67.32
2019-01-26T22:37:48.717Z,67.40
2019-01-26T22:40:21.840Z,67.39
2019-01-26T22:42:59.375Z,67.52
2019-01-26T22:45:29.942Z,67.84
2019-01-26T22:48:00.214Z,67.90
2019-01-26T22:50:32.010Z,67.90
2019-01-26T22:53:02.394Z,68.13
2019-01-26T22:55:32.754Z,68.17
2019-01-26T22:58:03.035Z,68.43
2019-01-26T23:01:13.644Z,68.38
2019-01-26T23:04:22.061Z,68.34
2019-01-26T23:07:11.581Z,68.72
2019-01-26T23:09:59.296Z,68.54
2019-01-26T23:12:42.977Z,68.28
2019-01-26T23:15:54.026Z,68.33
2019-01-26T23:18:56.051Z,68.18
2019-01-26T23:22:04.955Z,68.17
2019-01-26T23:25:06.399Z,68.16
2019-01-26T23:28:01.676Z,68.26
2019-01-26T23:31:27.963Z,68.35
2019-01-26T23:33:58.232Z,68.35
2019-01-26T23:36:28.476Z,68.54
2019-01-26T23:39:02.394Z,68.50
2019-01-26T23:41:30.705Z,68.62
2019-01-26T23:44:00.954Z,68.58
2019-01-26T23:46:31.255Z,68.58
2019-01-26T23:49:01.489Z,68.65
2019-01-26T23:51:31.749Z,68.71
2019-01-26T23:54:02.030Z,68.49
2019-01-26T23:56:32.342Z,68.60
2019-01-26T23:59:02.620Z,68.60
